Time;durP1;ratioP1;P1;durP2;ratioP2;P2;SDS_P1;SDS_P2;PMS_P1;PMS_P2;Temp;Humidity;BMP_temperature;BMP_pressure;BME280_temperature;BME280_humidity;BME280_pressure;Samples;Min_cycle;Max_cycle;Signal;HPM_P1;HPM_P2
2021/12/15 01:50:13;;;;;;;0.45;0.00;;;;;;;12.64;100.00;100776.13;4891213;29;20063;-82
2021/12/15 01:53:17;;;;;;;0.35;0.20;;;;;;;12.47;100.00;100775.66;4906840;29;20071;-84
2021/12/15 01:56:20;;;;;;;0.10;0.10;;;;;;;12.55;100.00;100773.31;4899051;29;20102;-82
2021/12/15 01:59:25;;;;;;;1.50;0.40;;;;;;;12.56;100.00;100778.44;4894859;29;20054;-82
2021/12/15 02:02:28;;;;;;;0.55;0.28;;;;;;;12.62;100.00;100770.22;4902357;29;20541;-83
2021/12/15 02:05:33;;;;;;;0.10;0.00;;;;;;;12.52;100.00;100777.81;4888695;29;20093;-83
2021/12/15 02:08:36;;;;;;;0.30;0.10;;;;;;;12.44;100.00;100784.97;4882272;29;20443;-83
2021/12/15 02:11:39;;;;;;;0.17;0.15;;;;;;;12.48;100.00;100784.81;4877112;29;20069;-84
2021/12/15 02:14:43;;;;;;;0.10;0.00;;;;;;;12.46;100.00;100776.91;4876393;29;20047;-83
2021/12/15 02:17:47;;;;;;;0.43;0.28;;;;;;;12.38;100.00;100778.47;4896400;29;20103;-84
2021/12/15 02:20:59;;;;;;;0.10;0.00;;;;;;;12.19;100.00;100788.81;4902922;29;20071;-83
2021/12/15 02:24:02;;;;;;;0.10;0.10;;;;;;;12.12;100.00;100794.72;4900696;29;20087;-83
2021/12/15 02:27:06;;;;;;;0.10;0.00;;;;;;;12.08;100.00;100787.75;4878408;29;20083;-82
2021/12/15 02:30:27;;;;;;;1.65;0.32;;;;;;;11.85;100.00;100788.28;4914277;29;20098;-83
2021/12/15 02:37:18;;;;;;;0.10;0.10;;;;;;;11.68;100.00;100798.97;4885526;29;20078;-83
2021/12/15 02:40:21;;;;;;;0.10;0.00;;;;;;;11.61;100.00;100804.03;4902872;29;20108;-82
2021/12/15 03:18:58;;;;;;;0.10;0.10;;;;;;;11.10;100.00;100809.97;5076876;23;20142;-51
2021/12/15 03:22:02;;;;;;;0.10;0.00;;;;;;;11.00;100.00;100815.97;4937336;29;20474;-51
2021/12/15 03:25:06;;;;;;;0.10;0.10;;;;;;;10.95;100.00;100819.31;4928192;29;20106;-51
2021/12/15 03:38:03;;;;;;;1.75;0.32;;;;;;;11.29;100.00;100822.00;4924451;29;20489;-52
2021/12/15 03:41:09;;;;;;;0.10;0.00;;;;;;;11.39;100.00;100812.47;4951321;28;20080;-54
2021/12/15 03:44:12;;;;;;;0.30;0.10;;;;;;;11.48;100.00;100808.94;4943317;29;20415;-51
2021/12/15 03:47:21;;;;;;;0.10;0.10;;;;;;;11.45;100.00;100807.84;4909490;29;20062;-52
2021/12/15 03:50:26;;;;;;;0.65;0.32;;;;;;;11.43;100.00;100799.16;4945937;28;20125;-52
2021/12/15 03:53:30;;;;;;;0.10;0.10;;;;;;;11.41;100.00;100801.63;4932883;29;20050;-53
2021/12/15 03:56:36;;;;;;;0.10;0.10;;;;;;;11.43;100.00;100793.56;4940555;29;20451;-52
2021/12/15 03:59:44;;;;;;;0.10;0.10;;;;;;;11.40;100.00;100798.06;4951497;28;20062;-54
2021/12/15 04:02:47;;;;;;;0.85;0.10;;;;;;;11.24;100.00;100803.09;4951135;29;20059;-54
2021/12/15 04:05:50;;;;;;;3.53;0.20;;;;;;;11.09;100.00;100802.06;4937087;29;20058;-52
2021/12/15 04:08:54;;;;;;;0.10;0.10;;;;;;;10.99;100.00;100808.81;4938875;29;20098;-52
2021/12/15 04:11:58;;;;;;;0.10;0.00;;;;;;;10.98;100.00;100804.50;4929607;29;20059;-51
2021/12/15 04:15:43;;;;;;;0.22;0.20;;;;;;;11.06;100.00;100814.91;4932590;29;20058;-52
2021/12/15 07:49:50;;;;;;;3.75;1.05;;;;;;;9.86;100.00;100929.63;4874016;29;20620;-57
2021/12/15 07:52:53;;;;;;;9.82;1.65;;;;;;;9.85;100.00;100936.44;4895764;29;20063;-57
2021/12/15 07:55:56;;;;;;;9.73;2.25;;;;;;;9.73;100.00;100931.63;4913022;29;20050;-57
2021/12/15 07:58:59;;;;;;;6.10;1.65;;;;;;;9.60;100.00;100941.94;4913227;29;20111;-57
2021/12/15 08:02:03;;;;;;;0.77;0.35;;;;;;;9.55;100.00;100948.06;4927921;29;20058;-57
2021/12/15 08:05:07;;;;;;;0.10;0.10;;;;;;;9.48;100.00;100948.25;4912675;29;20095;-57
2021/12/15 08:08:10;;;;;;;6.93;1.35;;;;;;;9.39;100.00;100948.13;4927210;29;20057;-57
2021/12/15 08:11:13;;;;;;;3.40;0.93;;;;;;;9.38;100.00;100949.34;4919039;29;20051;-58
2021/12/15 08:14:17;;;;;;;1.58;0.93;;;;;;;9.26;100.00;100953.66;4936067;29;20054;-57
2021/12/15 08:17:21;;;;;;;1.60;0.43;;;;;;;9.20;100.00;100955.41;4924363;29;20067;-57
2021/12/15 08:20:28;;;;;;;5.95;1.85;;;;;;;9.21;100.00;100950.63;4920254;29;20086;-57
2021/12/15 08:23:31;;;;;;;2.40;1.27;;;;;;;9.13;100.00;100950.84;4931191;29;20054;-58
2021/12/15 08:26:34;;;;;;;0.77;0.70;;;;;;;9.10;100.00;100954.47;4931251;29;20130;-57
2021/12/15 08:29:37;;;;;;;0.55;0.30;;;;;;;9.05;100.00;100952.22;4929318;29;20131;-57
2021/12/15 08:32:40;;;;;;;0.63;0.55;;;;;;;9.12;100.00;100957.59;4915085;29;20051;-57
2021/12/15 08:35:49;;;;;;;1.52;0.82;;;;;;;9.06;100.00;100959.34;4914426;29;20090;-57
2021/12/15 08:38:53;;;;;;;5.15;1.05;;;;;;;8.98;100.00;100955.22;4904399;29;20090;-57
2021/12/15 08:41:55;;;;;;;0.93;0.75;;;;;;;8.95;100.00;100950.53;4921171;29;20193;-57
2021/12/15 08:44:59;;;;;;;2.75;0.52;;;;;;;8.91;100.00;100955.41;4905782;29;20142;-57
2021/12/15 08:48:05;;;;;;;0.77;0.43;;;;;;;8.81;100.00;100964.81;4921597;29;20115;-57
2021/12/15 08:51:10;;;;;;;3.13;0.98;;;;;;;8.77;100.00;100966.88;4918174;29;20074;-57
2021/12/15 08:54:16;;;;;;;1.42;0.82;;;;;;;8.72;100.00;100974.97;4935881;29;20572;-58
2021/12/15 08:57:18;;;;;;;2.75;0.75;;;;;;;8.69;100.00;100976.59;4923005;29;20090;-56
2021/12/15 09:00:24;;;;;;;0.45;0.22;;;;;;;8.66;100.00;100976.72;4930623;29;20138;-57
2021/12/15 09:03:28;;;;;;;0.35;0.35;;;;;;;8.59;100.00;100991.56;4927307;29;20128;-56
2021/12/15 09:06:32;;;;;;;1.13;0.75;;;;;;;8.54;100.00;100980.97;4929682;29;20051;-56
2021/12/15 09:09:35;;;;;;;0.47;0.30;;;;;;;8.48;100.00;100988.25;4905746;29;20120;-56
2021/12/15 09:12:38;;;;;;;2.15;1.02;;;;;;;8.46;100.00;100979.56;4921078;29;20055;-56
2021/12/15 09:15:43;;;;;;;0.28;0.20;;;;;;;8.52;100.00;100980.59;4923533;29;20107;-56
2021/12/15 10:50:52;;;;;;;1.40;0.80;;;;;;;10.05;100.00;101053.84;4904362;29;20086;-57
2021/12/15 10:53:59;;;;;;;5.13;0.57;;;;;;;10.14;100.00;101061.56;4882075;29;20152;-57
2021/12/15 10:57:15;;;;;;;4.93;1.63;;;;;;;10.20;100.00;101055.00;4899078;29;20052;-57
2021/12/15 11:00:19;;;;;;;3.75;1.25;;;;;;;10.27;100.00;101054.03;4891684;29;20071;-56
2021/12/15 11:03:33;;;;;;;0.50;0.50;;;;;;;10.31;100.00;101052.69;4914203;29;20058;-56
2021/12/15 11:06:37;;;;;;;4.63;1.98;;;;;;;10.35;100.00;101058.94;4910673;29;20250;-56
2021/12/15 11:09:54;;;;;;;1.33;1.23;;;;;;;10.56;100.00;101057.50;4913939;29;20055;-56
2021/12/15 11:13:01;;;;;;;5.63;1.10;;;;;;;10.88;100.00;101060.03;4906888;29;20047;-56
2021/12/15 11:16:04;;;;;;;1.35;0.60;;;;;;;11.21;100.00;101055.72;4887063;29;20737;-57
2021/12/15 11:19:37;;;;;;;3.35;0.70;;;;;;;11.52;100.00;101044.66;4914386;29;20527;-58
2021/12/15 11:22:49;;;;;;;0.10;0.10;;;;;;;11.62;100.00;101051.88;4895422;29;20063;-57
2021/12/15 11:25:52;;;;;;;1.58;0.98;;;;;;;11.76;100.00;101056.97;4902102;29;20103;-57
2021/12/15 11:28:55;;;;;;;2.83;0.50;;;;;;;11.84;100.00;101047.13;4899142;29;20119;-57
2021/12/15 11:31:58;;;;;;;1.23;0.65;;;;;;;12.09;100.00;101051.75;4914288;29;20066;-57
2021/12/15 11:35:08;;;;;;;8.02;0.65;;;;;;;12.42;100.00;101052.06;4914406;29;20416;-57
2021/12/15 11:38:14;;;;;;;0.30;0.20;;;;;;;12.54;100.00;101054.75;4916159;29;20149;-57
2021/12/15 11:41:30;;;;;;;0.40;0.35;;;;;;;12.66;100.00;101045.50;4900234;29;20103;-56
2021/12/15 11:44:34;;;;;;;1.08;0.43;;;;;;;12.70;100.00;101054.50;4887935;29;20508;-57
2021/12/15 13:01:07;;;;;;;0.20;0.10;;;;;;;13.20;100.00;101088.84;4861589;29;20105;-85
2021/12/15 13:04:11;;;;;;;0.52;0.30;;;;;;;13.46;100.00;101081.72;4843950;29;20060;-87
2021/12/15 13:07:15;;;;;;;9.70;0.82;;;;;;;13.68;100.00;101083.13;4857338;29;20057;-84
2021/12/15 13:10:20;;;;;;;0.35;0.10;;;;;;;13.86;100.00;101090.72;4860428;29;20049;-84
2021/12/15 13:13:28;;;;;;;0.25;0.10;;;;;;;14.11;100.00;101084.78;4852533;29;20065;-85
2021/12/15 13:16:52;;;;;;;0.22;0.10;;;;;;;14.20;100.00;101075.59;4845767;29;20124;-85
2021/12/15 13:19:57;;;;;;;1.75;0.32;;;;;;;14.25;100.00;101072.16;4849206;29;20059;-85
2021/12/15 13:30:30;;;;;;;1.58;0.65;;;;;;;14.67;100.00;101086.19;4861063;29;20101;-87
2021/12/15 13:33:33;;;;;;;0.10;0.00;;;;;;;14.78;100.00;101076.00;4858971;29;20101;-87
2021/12/15 13:36:41;;;;;;;0.10;0.10;;;;;;;14.96;100.00;101087.16;4833634;29;20129;-87
2021/12/15 13:39:49;;;;;;;0.52;0.10;;;;;;;14.96;100.00;101087.16;4850801;29;20053;-87
2021/12/15 13:43:02;;;;;;;0.73;0.30;;;;;;;14.93;100.00;101082.47;4832667;29;20044;-89
2021/12/15 13:46:25;;;;;;;0.10;0.10;;;;;;;14.92;100.00;101080.16;4859706;29;20556;-87
2021/12/15 14:49:01;;;;;;;1.90;0.55;;;;;;;13.37;100.00;101110.47;4899395;23;20054;-84
2021/12/15 14:52:14;;;;;;;0.43;0.43;;;;;;;13.54;100.00;101110.94;4920944;29;20275;-83
2021/12/15 14:55:27;;;;;;;10.45;0.40;;;;;;;13.61;100.00;101114.22;4938504;29;20055;-83
2021/12/15 14:58:29;;;;;;;0.80;0.15;;;;;;;13.51;100.00;101118.25;4933688;29;20079;-84
2021/12/15 15:01:32;;;;;;;0.52;0.30;;;;;;;13.58;100.00;101120.75;4917935;29;20055;-84
2021/12/15 15:04:43;;;;;;;2.10;0.25;;;;;;;13.60;100.00;101123.84;4916279;29;20558;-84
2021/12/15 15:07:49;;;;;;;5.05;0.28;;;;;;;13.54;100.00;101131.31;4936662;28;20058;-83
2021/12/15 15:10:53;;;;;;;0.30;0.28;;;;;;;13.56;100.00;101126.03;4922757;29;20062;-84
2021/12/15 15:13:56;;;;;;;0.25;0.10;;;;;;;13.58;100.00;101145.16;4929104;29;20046;-84
2021/12/15 15:17:00;;;;;;;2.70;0.63;;;;;;;13.62;100.00;101137.41;4922492;29;20050;-84
2021/12/15 15:20:11;;;;;;;1.35;0.50;;;;;;;13.50;100.00;101141.88;4926503;29;20051;-84
2021/12/15 15:23:22;;;;;;;3.13;0.50;;;;;;;13.41;100.00;101150.28;4920863;29;20508;-84
2021/12/15 15:26:28;;;;;;;3.28;0.90;;;;;;;13.17;100.00;101146.47;4913199;29;20119;-84
2021/12/15 15:29:41;;;;;;;4.40;0.93;;;;;;;13.01;100.00;101160.72;4913437;29;20043;-84
2021/12/15 15:32:44;;;;;;;1.65;0.30;;;;;;;12.84;100.00;101156.59;4912842;29;20136;-84
2021/12/15 15:36:10;;;;;;;0.63;0.38;;;;;;;12.85;100.00;101155.34;4913211;29;20100;-84
2021/12/15 15:39:14;;;;;;;3.20;0.65;;;;;;;12.77;100.00;101157.66;4912964;29;20085;-84
2021/12/15 15:42:23;;;;;;;6.95;1.17;;;;;;;12.63;100.00;101161.00;4928903;29;20088;-84
2021/12/15 15:45:36;;;;;;;0.68;0.63;;;;;;;12.57;100.00;101168.41;4912836;29;20196;-84
2021/12/15 19:58:49;;;;;;;1.90;1.05;;;;;;;8.74;100.00;101416.91;4846183;29;20061;-50
2021/12/15 20:01:58;;;;;;;3.28;1.70;;;;;;;8.71;100.00;101406.63;4896131;29;20120;-50
2021/12/15 20:05:01;;;;;;;2.85;1.42;;;;;;;8.64;100.00;101423.44;4909612;29;20092;-50
2021/12/15 20:08:07;;;;;;;3.17;1.73;;;;;;;8.68;100.00;101413.84;4903483;29;20071;-50
2021/12/15 20:11:17;;;;;;;3.10;1.35;;;;;;;8.66;100.00;101421.03;4917680;29;20392;-50
2021/12/15 20:14:23;;;;;;;5.38;2.83;;;;;;;8.69;100.00;101418.16;4912371;29;20108;-50
2021/12/15 20:17:26;;;;;;;0.68;0.68;;;;;;;8.64;100.00;101418.66;4903145;29;20064;-50
2021/12/15 20:20:29;;;;;;;0.70;0.68;;;;;;;8.58;100.00;101425.09;4891256;29;20059;-50
2021/12/15 20:23:32;;;;;;;10.88;2.15;;;;;;;8.48;100.00;101431.66;4916928;29;20075;-50
2021/12/15 20:26:35;;;;;;;5.45;1.70;;;;;;;8.34;100.00;101432.66;4903338;29;20411;-50
2021/12/15 20:29:38;;;;;;;3.53;1.95;;;;;;;8.19;100.00;101439.63;4911766;29;20473;-50
2021/12/15 20:32:44;;;;;;;6.57;2.13;;;;;;;8.04;100.00;101438.28;4897591;29;20056;-50
2021/12/15 20:35:48;;;;;;;1.67;0.82;;;;;;;7.97;100.00;101443.94;4897502;29;20135;-50
2021/12/15 20:38:54;;;;;;;1.25;1.10;;;;;;;7.93;100.00;101445.97;4894942;29;20111;-50
2021/12/15 20:41:57;;;;;;;2.25;1.08;;;;;;;7.89;100.00;101448.00;4877982;29;20386;-51
2021/12/15 20:45:00;;;;;;;6.72;2.33;;;;;;;7.83;100.00;101444.94;4884181;29;20580;-51
2021/12/15 23:54:42;;;;;;;7.28;2.28;;;;;;;5.61;100.00;101590.00;4946162;28;20079;-49
